createdAt,value
2019-01-09T00:01:38.941Z,4.22
2019-01-09T00:04:06.428Z,5.93
2019-01-09T00:06:33.833Z,4.53
2019-01-09T00:09:01.414Z,4.65
2019-01-09T00:11:28.879Z,3.87
2019-01-09T00:13:56.274Z,4.70
2019-01-09T00:16:23.691Z,4.07
2019-01-09T00:18:51.316Z,5.65
2019-01-09T00:21:18.737Z,4.15
2019-01-09T00:23:46.132Z,4.15
2019-01-09T00:26:13.546Z,4.68
2019-01-09T00:28:40.948Z,3.65
2019-01-09T00:31:08.347Z,3.58
2019-01-09T00:33:35.739Z,3.75
2019-01-09T00:36:03.163Z,3.12
2019-01-09T00:38:30.718Z,3.25
2019-01-09T00:40:58.115Z,3.15
2019-01-09T00:43:25.518Z,3.80
2019-01-09T00:45:52.915Z,2.22
2019-01-09T00:48:20.478Z,2.53
2019-01-09T00:50:47.887Z,2.92
2019-01-09T00:53:15.283Z,5.55
2019-01-09T00:55:42.683Z,2.22
2019-01-09T00:58:10.078Z,2.92
2019-01-09T01:00:37.476Z,2.42
2019-01-09T01:06:45.024Z,5.43
2019-01-09T01:09:24.023Z,2.08
2019-01-09T01:12:00.866Z,1.80
2019-01-09T01:17:31.862Z,5.30
2019-01-09T01:20:13.524Z,2.25
2019-01-09T01:22:49.515Z,3.60
2019-01-09T01:25:18.738Z,2.42
2019-01-09T01:27:51.959Z,1.90
2019-01-09T01:30:33.108Z,1.80
2019-01-09T01:33:01.452Z,2.78
2019-01-09T01:35:34.775Z,1.77
2019-01-09T01:41:02.795Z,5.30
2019-01-09T01:43:34.622Z,3.45
2019-01-09T01:46:05.906Z,4.22
2019-01-09T01:48:50.938Z,2.22
2019-01-09T01:51:19.094Z,2.67
2019-01-09T01:54:02.934Z,3.97
2019-01-09T01:56:33.619Z,2.83
2019-01-09T01:59:07.660Z,2.85
2019-01-09T02:01:50.810Z,2.37
2019-01-09T02:04:20.025Z,4.70
2019-01-09T02:07:05.423Z,2.65
2019-01-09T02:12:57.378Z,3.00
2019-01-09T02:15:45.537Z,1.10
2019-01-09T02:18:12.989Z,1.17
2019-01-09T02:20:43.043Z,0.73
2019-01-09T02:23:26.394Z,0.90
2019-01-09T02:25:58.549Z,2.30
2019-01-09T02:28:38.342Z,1.65
2019-01-09T02:31:12.636Z,1.20
2019-01-09T02:33:40.181Z,1.50
2019-01-09T02:36:13.369Z,1.70
2019-01-09T02:38:35.173Z,2.25
2019-01-09T02:41:02.551Z,1.62
2019-01-09T02:43:29.947Z,1.02
2019-01-09T02:45:57.423Z,1.30
2019-01-09T02:48:24.849Z,1.17
2019-01-09T02:50:52.962Z,0.95
2019-01-09T02:53:20.388Z,1.37
2019-01-09T02:55:47.791Z,1.00
2019-01-09T02:58:15.210Z,1.00
2019-01-09T03:00:42.605Z,1.10
2019-01-09T03:03:10.041Z,0.95
2019-01-09T03:05:37.444Z,1.65
2019-01-09T03:08:04.835Z,1.60
2019-01-09T03:10:32.737Z,0.88
2019-01-09T03:13:00.134Z,1.08
2019-01-09T03:15:27.524Z,1.77
2019-01-09T03:17:54.936Z,1.10
2019-01-09T03:20:22.334Z,1.52
2019-01-09T03:22:49.744Z,1.80
2019-01-09T03:25:17.137Z,1.20
2019-01-09T03:27:44.534Z,1.02
2019-01-09T03:30:11.938Z,2.55
2019-01-09T03:32:39.373Z,1.58
2019-01-09T03:35:06.776Z,0.95
2019-01-09T03:37:34.180Z,1.40
2019-01-09T03:57:07.427Z,1.08
2019-01-09T03:59:34.829Z,0.75
2019-01-09T04:02:02.409Z,1.00
2019-01-09T04:04:29.826Z,1.40
2019-01-09T04:06:57.245Z,1.12
2019-01-09T04:09:24.652Z,0.90
2019-01-09T04:11:52.208Z,0.77
2019-01-09T04:14:19.601Z,0.85
2019-01-09T04:16:46.996Z,0.70
2019-01-09T04:19:14.423Z,0.70
2019-01-09T04:21:41.828Z,0.68
2019-01-09T04:24:09.241Z,0.88
2019-01-09T04:26:36.699Z,0.80
2019-01-09T04:29:04.111Z,0.95
2019-01-09T04:31:31.510Z,1.27
2019-01-09T04:33:58.925Z,0.98
2019-01-09T04:36:26.322Z,1.10
2019-01-09T04:38:53.002Z,1.40
2019-01-09T04:41:20.557Z,1.35
2019-01-09T04:43:47.975Z,1.23
2019-01-09T04:46:15.376Z,1.40
2019-01-09T04:48:42.777Z,1.05
2019-01-09T04:51:10.213Z,2.00
2019-01-09T04:53:37.644Z,1.73
2019-01-09T04:56:05.044Z,1.27
2019-01-09T04:58:32.432Z,1.42
2019-01-09T05:00:59.831Z,1.50
2019-01-09T05:03:27.232Z,1.95
2019-01-09T05:05:54.635Z,1.70
2019-01-09T05:08:22.055Z,1.25
2019-01-09T05:10:49.467Z,1.58
2019-01-09T05:13:16.853Z,1.42
2019-01-09T05:15:44.250Z,1.33
2019-01-09T05:18:11.640Z,1.33
2019-01-09T05:20:39.053Z,1.65
2019-01-09T05:23:06.452Z,1.20
2019-01-09T05:25:33.847Z,1.60
2019-01-09T05:28:01.257Z,2.00
2019-01-09T05:30:28.889Z,1.35
2019-01-09T05:32:56.319Z,1.15
2019-01-09T05:35:23.774Z,1.17
2019-01-09T05:37:51.222Z,1.33
2019-01-09T05:40:19.653Z,0.60
2019-01-09T05:42:46.980Z,1.30
2019-01-09T05:45:14.395Z,0.95
2019-01-09T05:47:41.868Z,1.27
2019-01-09T05:50:09.301Z,1.00
2019-01-09T05:52:36.696Z,0.70
2019-01-09T05:55:04.094Z,0.93
2019-01-09T05:57:31.557Z,0.75
2019-01-09T05:59:58.985Z,1.10
2019-01-09T06:02:27.846Z,0.80
2019-01-09T06:04:53.787Z,0.70
2019-01-09T06:07:21.306Z,0.95
2019-01-09T06:09:48.691Z,0.82
2019-01-09T06:12:16.150Z,0.82
2019-01-09T06:14:43.572Z,0.80
2019-01-09T06:17:10.968Z,1.00
2019-01-09T06:19:38.373Z,0.95
2019-01-09T06:22:06.268Z,0.70
2019-01-09T06:24:33.678Z,1.05
2019-01-09T06:27:01.080Z,0.80
2019-01-09T06:29:28.489Z,0.60
2019-01-09T06:31:55.952Z,0.70
2019-01-09T06:34:23.362Z,1.00
2019-01-09T06:36:50.764Z,0.60
2019-01-09T06:39:18.178Z,0.60
2019-01-09T06:41:45.584Z,0.82
2019-01-09T06:44:13.010Z,0.93
2019-01-09T06:46:40.451Z,0.70
2019-01-09T06:49:07.931Z,1.62
2019-01-09T06:51:35.310Z,0.70
2019-01-09T06:54:02.723Z,0.80
2019-01-09T06:56:30.209Z,0.80
2019-01-09T06:58:57.618Z,0.82
2019-01-09T07:01:25.060Z,0.80
2019-01-09T07:03:52.668Z,1.20
2019-01-09T07:06:20.082Z,1.37
2019-01-09T07:08:47.490Z,1.33
2019-01-09T07:11:15.686Z,1.02
2019-01-09T07:13:43.079Z,1.90
2019-01-09T07:16:10.502Z,0.98
2019-01-09T07:18:37.913Z,2.65
2019-01-09T07:21:05.312Z,1.70
2019-01-09T07:23:32.741Z,1.25
2019-01-09T07:26:00.143Z,1.10
2019-01-09T07:28:28.118Z,0.90
2019-01-09T07:30:55.529Z,0.77
2019-01-09T07:33:22.932Z,0.80
2019-01-09T07:35:50.578Z,0.80
2019-01-09T07:38:17.945Z,1.00
2019-01-09T07:40:46.174Z,0.70
2019-01-09T07:43:13.629Z,0.90
2019-01-09T07:45:41.022Z,0.90
2019-01-09T07:48:08.440Z,0.98
2019-01-09T07:50:35.857Z,1.02
2019-01-09T07:53:03.324Z,1.30
2019-01-09T07:55:30.869Z,1.00
2019-01-09T07:57:58.329Z,0.90
2019-01-09T08:00:25.739Z,0.98
2019-01-09T08:02:53.254Z,0.80
2019-01-09T08:05:20.803Z,1.12
2019-01-09T08:07:53.851Z,0.90
2019-01-09T08:10:15.871Z,1.33
2019-01-09T08:12:43.467Z,1.02
2019-01-09T08:15:10.928Z,1.00
2019-01-09T08:17:38.384Z,0.95
2019-01-09T08:20:05.935Z,0.95
2019-01-09T08:22:33.339Z,2.20
2019-01-09T08:25:00.805Z,1.50
2019-01-09T08:27:28.242Z,1.20
2019-01-09T08:29:56.167Z,0.82
2019-01-09T08:32:23.578Z,0.82
2019-01-09T08:34:51.049Z,0.95
2019-01-09T08:37:19.073Z,0.85
2019-01-09T08:39:46.514Z,1.00
2019-01-09T08:42:13.970Z,1.25
2019-01-09T08:44:41.384Z,2.97
2019-01-09T08:47:08.914Z,1.25
2019-01-09T08:49:36.332Z,1.50
2019-01-09T08:52:03.725Z,1.98
2019-01-09T08:54:31.111Z,1.70
2019-01-09T08:56:58.531Z,1.25
2019-01-09T08:59:25.938Z,1.50
2019-01-09T09:01:53.347Z,1.40
2019-01-09T09:04:20.779Z,1.00
2019-01-09T09:06:48.382Z,1.12
2019-01-09T09:09:15.786Z,1.08
2019-01-09T09:11:43.189Z,0.80
2019-01-09T09:14:10.594Z,1.02
2019-01-09T09:16:37.975Z,0.60
2019-01-09T09:19:05.452Z,0.73
2019-01-09T09:21:32.868Z,0.60
2019-01-09T09:24:00.682Z,0.60
2019-01-09T09:26:28.128Z,0.60
2019-01-09T09:28:55.526Z,0.77
2019-01-09T09:31:22.985Z,1.58
2019-01-09T09:33:50.379Z,0.73
2019-01-09T09:36:17.807Z,1.20
2019-01-09T09:38:45.205Z,0.70
2019-01-09T09:41:12.592Z,0.60
2019-01-09T09:43:40.007Z,0.73
2019-01-09T09:46:07.555Z,0.95
2019-01-09T09:48:35.080Z,1.10
2019-01-09T09:51:02.510Z,2.00
2019-01-09T09:53:29.976Z,0.65
2019-01-09T09:55:57.559Z,0.80
2019-01-09T09:58:24.967Z,1.20
2019-01-09T10:00:52.737Z,1.08
2019-01-09T10:03:20.171Z,0.70
2019-01-09T10:05:47.575Z,1.40
2019-01-09T10:08:14.974Z,1.50
2019-01-09T10:10:42.407Z,1.73
2019-01-09T10:13:09.852Z,3.17
2019-01-09T10:15:37.276Z,1.55
2019-01-09T10:18:04.675Z,1.20
2019-01-09T10:20:32.080Z,1.30
2019-01-09T10:22:59.599Z,1.40
2019-01-09T10:25:27.090Z,1.50
2019-01-09T10:27:54.655Z,1.35
2019-01-09T10:30:22.128Z,1.48
2019-01-09T10:32:50.386Z,1.65
2019-01-09T10:35:17.824Z,1.30
2019-01-09T10:37:45.240Z,1.73
2019-01-09T10:40:13.470Z,1.50
2019-01-09T10:42:40.883Z,1.65
2019-01-09T10:45:08.278Z,1.02
2019-01-09T10:47:35.678Z,1.12
2019-01-09T10:50:03.085Z,1.48
2019-01-09T10:52:30.558Z,2.30
2019-01-09T10:54:57.948Z,1.30
2019-01-09T10:57:25.342Z,1.42
2019-01-09T10:59:52.946Z,1.35
2019-01-09T11:02:20.708Z,1.25
2019-01-09T11:04:48.167Z,2.30
2019-01-09T11:07:15.573Z,1.05
2019-01-09T11:09:42.983Z,1.45
2019-01-09T11:12:10.425Z,1.83
2019-01-09T11:14:37.830Z,1.70
2019-01-09T11:17:05.298Z,1.52
2019-01-09T11:19:32.711Z,1.70
2019-01-09T11:22:00.275Z,1.60
2019-01-09T11:24:27.694Z,1.95
2019-01-09T11:26:55.162Z,1.75
2019-01-09T11:29:22.637Z,1.87
2019-01-09T11:31:50.179Z,1.42
2019-01-09T11:34:17.629Z,1.58
2019-01-09T11:36:45.139Z,1.37
2019-01-09T11:39:12.611Z,1.02
2019-01-09T11:41:40.035Z,1.33
2019-01-09T11:44:07.490Z,2.58
2019-01-09T11:46:34.892Z,1.10
2019-01-09T11:49:02.311Z,1.17
2019-01-09T11:51:29.743Z,1.55
2019-01-09T11:53:57.143Z,1.05
2019-01-09T11:56:25.188Z,1.30
2019-01-09T11:58:52.648Z,1.60
2019-01-09T12:01:20.075Z,1.70
2019-01-09T12:03:47.463Z,1.77
2019-01-09T12:06:14.866Z,1.60
2019-01-09T12:08:42.326Z,1.10
2019-01-09T12:11:09.721Z,1.17
2019-01-09T12:13:37.206Z,2.37
2019-01-09T12:16:08.232Z,1.30
2019-01-09T12:18:32.241Z,1.40
2019-01-09T12:20:59.736Z,0.93
2019-01-09T12:23:27.268Z,1.83
2019-01-09T12:25:55.596Z,1.85
2019-01-09T12:28:23.009Z,1.42
2019-01-09T12:30:50.455Z,1.40
2019-01-09T12:33:17.851Z,1.08
2019-01-09T12:35:45.252Z,1.20
2019-01-09T12:38:12.755Z,0.80
2019-01-09T12:40:41.422Z,0.70
2019-01-09T12:43:08.857Z,0.75
2019-01-09T12:45:36.318Z,0.90
2019-01-09T12:48:03.925Z,1.05
2019-01-09T12:50:31.328Z,1.35
2019-01-09T12:52:58.833Z,1.40
2019-01-09T12:55:26.227Z,1.00
2019-01-09T12:57:53.647Z,1.08
2019-01-09T13:00:21.892Z,1.05
2019-01-09T13:02:49.303Z,0.73
2019-01-09T13:05:16.705Z,1.30
2019-01-09T13:07:44.123Z,1.33
2019-01-09T13:10:11.520Z,0.90
2019-01-09T13:12:38.943Z,1.00
2019-01-09T13:15:06.343Z,0.80
2019-01-09T13:17:33.785Z,1.15
2019-01-09T13:20:01.207Z,0.70
2019-01-09T13:22:28.590Z,1.15
2019-01-09T13:24:56.080Z,1.95
2019-01-09T13:27:23.613Z,0.90
2019-01-09T13:37:11.899Z,1.30
2019-01-09T13:44:33.616Z,1.33
2019-01-09T13:47:01.892Z,1.58
2019-01-09T13:49:29.427Z,1.48
2019-01-09T13:51:56.832Z,0.80
2019-01-09T13:54:24.258Z,1.55
2019-01-09T13:56:51.690Z,1.15
2019-01-09T13:59:20.502Z,0.85
2019-01-09T14:01:47.927Z,1.10
2019-01-09T14:04:15.447Z,1.45
2019-01-09T14:06:43.711Z,1.90
2019-01-09T14:09:11.123Z,1.67
2019-01-09T14:11:38.612Z,1.42
2019-01-09T14:14:06.080Z,2.25
2019-01-09T14:16:33.624Z,1.50
2019-01-09T14:19:01.162Z,0.93
2019-01-09T14:21:28.608Z,1.75
2019-01-09T14:23:56.026Z,1.33
2019-01-09T14:26:23.463Z,0.75
2019-01-09T14:28:50.865Z,1.12
2019-01-09T14:31:18.446Z,0.90
2019-01-09T14:36:13.168Z,0.93
2019-01-09T14:38:41.499Z,1.30
2019-01-09T14:41:08.963Z,0.80
2019-01-09T14:43:36.368Z,1.02
2019-01-09T14:46:04.025Z,1.98
2019-01-09T14:48:31.434Z,0.65
2019-01-09T14:50:58.867Z,0.75
2019-01-09T14:53:26.423Z,0.80
2019-01-09T14:55:53.811Z,1.00
2019-01-09T14:58:21.244Z,1.58
2019-01-09T15:00:50.034Z,1.20
2019-01-09T15:03:17.440Z,0.70
2019-01-09T15:05:45.105Z,0.98
2019-01-09T15:08:12.474Z,0.90
2019-01-09T15:10:39.975Z,0.70
2019-01-09T15:13:07.407Z,0.68
2019-01-09T15:15:34.844Z,0.70
2019-01-09T15:18:02.255Z,0.73
2019-01-09T15:20:29.702Z,1.92
2019-01-09T15:22:57.129Z,0.80
2019-01-09T15:25:24.554Z,0.90
2019-01-09T15:27:52.611Z,0.90
2019-01-09T15:30:24.821Z,0.60
2019-01-09T15:32:52.377Z,0.90
2019-01-09T15:35:19.802Z,0.80
2019-01-09T15:37:48.158Z,0.55
2019-01-09T15:40:15.605Z,0.90
2019-01-09T15:42:43.020Z,0.93
2019-01-09T15:45:10.418Z,0.70
2019-01-09T15:47:37.856Z,0.90
2019-01-09T15:50:06.242Z,1.05
2019-01-09T15:52:33.635Z,0.70
2019-01-09T15:55:01.233Z,0.80
2019-01-09T15:57:28.642Z,1.33
2019-01-09T15:59:57.078Z,2.00
2019-01-09T16:02:24.611Z,1.12
2019-01-09T16:04:52.207Z,1.45
2019-01-09T16:07:19.605Z,1.15
2019-01-09T16:09:47.051Z,1.05
2019-01-09T16:12:14.735Z,1.12
2019-01-09T16:14:42.149Z,1.17
2019-01-09T16:17:09.557Z,1.12
2019-01-09T16:19:36.946Z,2.20
2019-01-09T16:22:05.311Z,1.05
2019-01-09T16:24:32.878Z,1.10
2019-01-09T16:27:00.322Z,1.10
2019-01-09T16:32:01.573Z,1.33
2019-01-09T16:34:29.101Z,1.70
2019-01-09T16:36:56.510Z,2.12
2019-01-09T16:39:30.792Z,2.25
2019-01-09T16:41:51.628Z,1.55
2019-01-09T16:44:19.040Z,1.20
2019-01-09T16:46:46.442Z,1.52
2019-01-09T16:49:13.851Z,0.90
2019-01-09T16:51:41.353Z,1.00
2019-01-09T16:54:08.818Z,1.25
2019-01-09T16:56:36.272Z,0.98
2019-01-09T16:59:03.748Z,1.10
2019-01-09T17:01:31.296Z,0.50
2019-01-09T17:03:58.709Z,0.60
2019-01-09T17:06:26.123Z,0.75
2019-01-09T17:08:53.543Z,0.90
2019-01-09T17:11:21.295Z,0.95
2019-01-09T17:13:48.993Z,0.85
2019-01-09T17:16:16.389Z,0.73
2019-01-09T17:18:43.823Z,1.00
2019-01-09T17:21:11.292Z,0.70
2019-01-09T17:23:38.716Z,0.70
2019-01-09T17:26:06.125Z,0.90
2019-01-09T17:28:33.547Z,1.12
2019-01-09T17:31:00.940Z,0.80
2019-01-09T17:33:28.456Z,0.80
2019-01-09T17:35:55.917Z,1.10
2019-01-09T17:38:23.412Z,0.90
2019-01-09T17:40:50.874Z,1.00
2019-01-09T17:43:18.397Z,0.77
2019-01-09T17:45:46.123Z,0.80
2019-01-09T17:48:13.554Z,0.80
2019-01-09T17:50:40.993Z,1.02
2019-01-09T17:53:08.442Z,1.50
2019-01-09T17:55:35.866Z,0.80
2019-01-09T17:58:03.344Z,0.73
2019-01-09T18:00:32.357Z,1.58
2019-01-09T18:02:59.967Z,0.60
2019-01-09T18:05:27.511Z,1.10
2019-01-09T18:07:55.412Z,1.20
2019-01-09T18:10:22.848Z,0.85
2019-01-09T18:12:50.250Z,1.10
2019-01-09T18:15:17.714Z,1.65
2019-01-09T18:17:45.165Z,1.10
2019-01-09T18:20:12.686Z,0.88
2019-01-09T18:22:40.103Z,2.37
2019-01-09T18:25:07.509Z,1.50
2019-01-09T18:27:35.007Z,1.55
2019-01-09T18:30:02.566Z,1.37
2019-01-09T18:32:29.974Z,1.12
2019-01-09T18:34:57.380Z,1.65
2019-01-09T18:37:29.258Z,1.92
2019-01-09T18:40:12.332Z,1.67
2019-01-09T18:45:56.287Z,2.95
2019-01-09T18:51:39.537Z,3.30
2019-01-09T18:54:07.015Z,1.20
2019-01-09T18:56:34.404Z,1.25
2019-01-09T18:59:03.376Z,0.90
2019-01-09T19:01:30.819Z,0.82
2019-01-09T19:03:58.272Z,1.17
2019-01-09T19:06:34.799Z,1.55
2019-01-09T19:08:53.130Z,1.40
2019-01-09T19:11:20.557Z,1.17
2019-01-09T19:13:47.999Z,1.20
2019-01-09T19:16:15.428Z,1.27
2019-01-09T19:18:42.890Z,1.37
2019-01-09T19:21:10.298Z,1.20
2019-01-09T19:23:37.702Z,1.83
2019-01-09T19:26:05.094Z,1.25
2019-01-09T19:28:32.526Z,2.42
2019-01-09T19:31:00.252Z,1.27
2019-01-09T19:33:27.735Z,1.85
2019-01-09T19:35:55.771Z,4.00
2019-01-09T19:38:23.201Z,0.80
2019-01-09T19:40:50.662Z,2.65
2019-01-09T19:43:18.071Z,1.77
2019-01-09T19:45:45.656Z,2.95
2019-01-09T19:48:13.096Z,1.17
2019-01-09T19:50:42.683Z,1.52
2019-01-09T19:53:08.211Z,0.93
2019-01-09T19:55:35.624Z,1.60
2019-01-09T19:58:03.018Z,1.05
2019-01-09T20:00:30.516Z,1.50
2019-01-09T20:02:57.899Z,1.00
2019-01-09T20:05:25.615Z,1.45
2019-01-09T20:07:53.044Z,1.20
2019-01-09T20:10:20.455Z,1.20
2019-01-09T20:12:47.915Z,1.02
2019-01-09T20:15:15.375Z,0.60
2019-01-09T20:17:42.844Z,1.02
2019-01-09T20:20:11.051Z,1.15
2019-01-09T20:22:38.732Z,1.00
2019-01-09T20:25:06.124Z,0.93
2019-01-09T20:27:33.591Z,0.85
2019-01-09T20:30:01.006Z,0.80
2019-01-09T20:32:28.437Z,0.82
2019-01-09T20:34:55.823Z,1.60
2019-01-09T20:37:23.251Z,0.82
2019-01-09T20:39:50.774Z,1.00
2019-01-09T20:42:18.478Z,0.80
2019-01-09T20:44:45.911Z,1.77
2019-01-09T20:47:13.346Z,1.20
2019-01-09T20:49:40.858Z,1.65
2019-01-09T20:52:08.192Z,1.58
2019-01-09T20:54:35.605Z,1.30
2019-01-09T20:57:03.046Z,1.40
2019-01-09T20:59:30.571Z,1.45
2019-01-09T21:01:57.995Z,1.83
2019-01-09T21:04:25.577Z,1.35
2019-01-09T21:06:52.974Z,0.85
2019-01-09T21:09:20.411Z,1.20
2019-01-09T21:11:47.845Z,1.98
2019-01-09T21:14:16.114Z,1.52
2019-01-09T21:16:43.690Z,1.30
2019-01-09T21:19:11.055Z,1.60
2019-01-09T21:21:38.605Z,1.98
2019-01-09T21:24:06.077Z,1.35
2019-01-09T21:26:33.613Z,2.00
2019-01-09T21:29:01.015Z,1.65
2019-01-09T21:31:28.452Z,2.70
2019-01-09T21:33:56.068Z,2.17
2019-01-09T21:36:23.487Z,2.75
2019-01-09T21:38:50.897Z,1.67
2019-01-09T21:41:18.386Z,2.10
2019-01-09T21:43:45.791Z,1.10
2019-01-09T21:48:47.059Z,2.12
2019-01-09T21:51:14.484Z,2.35
2019-01-09T21:53:42.028Z,2.10
2019-01-09T21:56:09.466Z,3.40
2019-01-09T21:58:36.859Z,2.10
2019-01-09T22:01:04.259Z,1.87
2019-01-09T22:03:31.664Z,2.15
2019-01-09T22:05:59.075Z,1.87
2019-01-09T22:08:26.560Z,2.03
2019-01-09T22:10:53.955Z,1.80
2019-01-09T22:13:21.378Z,2.65
2019-01-09T22:15:48.792Z,1.87
2019-01-09T22:18:16.206Z,2.50
2019-01-09T22:20:43.628Z,2.08
2019-01-09T22:23:11.021Z,1.75
2019-01-09T22:25:38.430Z,2.50
2019-01-09T22:28:05.866Z,1.30
2019-01-09T22:30:33.324Z,1.58
2019-01-09T22:33:00.720Z,1.52
2019-01-09T22:35:28.329Z,2.03
2019-01-09T22:37:55.727Z,1.85
2019-01-09T22:40:23.147Z,1.95
2019-01-09T22:45:24.326Z,1.70
2019-01-09T22:47:51.735Z,1.60
2019-01-09T22:50:19.943Z,1.95
2019-01-09T22:52:47.326Z,2.22
2019-01-09T22:55:14.723Z,1.87
2019-01-09T22:57:42.115Z,2.20
2019-01-09T23:00:18.266Z,1.92
2019-01-09T23:02:45.698Z,1.52
2019-01-09T23:05:13.099Z,2.15
2019-01-09T23:07:40.503Z,1.95
2019-01-09T23:10:07.919Z,1.60
2019-01-09T23:12:35.314Z,2.75
2019-01-09T23:15:02.876Z,1.60
2019-01-09T23:17:30.994Z,1.60
2019-01-09T23:19:58.408Z,1.67
2019-01-09T23:22:25.810Z,1.98
2019-01-09T23:24:53.609Z,1.58
2019-01-09T23:27:21.002Z,2.33
2019-01-09T23:29:48.411Z,1.80
2019-01-09T23:32:15.881Z,2.10
2019-01-09T23:34:43.269Z,1.65
2019-01-09T23:37:10.689Z,0.80
2019-01-09T23:39:38.172Z,1.08
2019-01-09T23:42:05.550Z,1.33
2019-01-09T23:44:32.956Z,4.40
2019-01-09T23:47:00.937Z,0.98
2019-01-09T23:49:28.390Z,1.83
2019-01-09T23:51:55.783Z,0.90
2019-01-09T23:54:23.188Z,1.65
2019-01-09T23:56:50.587Z,1.50
2019-01-09T23:59:17.994Z,1.00
